sensor_id;sensor_type;location;lat;lon;timestamp;P1;durP1;ratioP1;P2;durP2;ratioP2
35376;SDS011;21480;51.642;4.834;2022-12-18T00:01:11;166.90;;;126.10;;
35376;SDS011;21480;51.642;4.834;2022-12-18T00:03:49;158.63;;;125.33;;
35376;SDS011;21480;51.642;4.834;2022-12-18T00:06:16;153.87;;;124.57;;
35376;SDS011;21480;51.642;4.834;2022-12-18T00:08:42;166.03;;;126.50;;
35376;SDS011;21480;51.642;4.834;2022-12-18T00:11:13;148.37;;;124.77;;
35376;SDS011;21480;51.642;4.834;2022-12-18T00:13:41;157.90;;;124.80;;
35376;SDS011;21480;51.642;4.834;2022-12-18T00:16:08;163.23;;;127.43;;
35376;SDS011;21480;51.642;4.834;2022-12-18T00:18:36;162.73;;;125.67;;
35376;SDS011;21480;51.642;4.834;2022-12-18T00:21:03;162.10;;;127.27;;
35376;SDS011;21480;51.642;4.834;2022-12-18T00:23:31;161.37;;;125.80;;
35376;SDS011;21480;51.642;4.834;2022-12-18T00:26:02;156.80;;;126.00;;
35376;SDS011;21480;51.642;4.834;2022-12-18T00:28:29;179.37;;;126.70;;
35376;SDS011;21480;51.642;4.834;2022-12-18T00:31:15;166.37;;;126.23;;
35376;SDS011;21480;51.642;4.834;2022-12-18T00:33:42;157.83;;;125.70;;
35376;SDS011;21480;51.642;4.834;2022-12-18T00:36:12;171.13;;;125.17;;
35376;SDS011;21480;51.642;4.834;2022-12-18T00:38:40;158.23;;;124.80;;
35376;SDS011;21480;51.642;4.834;2022-12-18T00:41:07;168.60;;;126.70;;
35376;SDS011;21480;51.642;4.834;2022-12-18T00:43:33;153.00;;;125.23;;
35376;SDS011;21480;51.642;4.834;2022-12-18T00:46:00;170.77;;;129.33;;
35376;SDS011;21480;51.642;4.834;2022-12-18T00:48:26;164.40;;;127.53;;
35376;SDS011;21480;51.642;4.834;2022-12-18T00:50:52;162.23;;;128.90;;
35376;SDS011;21480;51.642;4.834;2022-12-18T00:53:18;187.13;;;128.60;;
35376;SDS011;21480;51.642;4.834;2022-12-18T00:55:44;172.93;;;126.03;;
35376;SDS011;21480;51.642;4.834;2022-12-18T00:58:10;163.83;;;126.63;;
35376;SDS011;21480;51.642;4.834;2022-12-18T01:00:37;167.60;;;128.77;;
35376;SDS011;21480;51.642;4.834;2022-12-18T01:03:04;176.30;;;128.00;;
35376;SDS011;21480;51.642;4.834;2022-12-18T01:05:30;157.07;;;126.30;;
35376;SDS011;21480;51.642;4.834;2022-12-18T01:07:56;165.27;;;127.10;;
35376;SDS011;21480;51.642;4.834;2022-12-18T01:10:22;165.07;;;125.80;;
35376;SDS011;21480;51.642;4.834;2022-12-18T01:12:49;184.90;;;130.07;;
35376;SDS011;21480;51.642;4.834;2022-12-18T01:15:15;154.77;;;125.50;;
35376;SDS011;21480;51.642;4.834;2022-12-18T01:17:42;164.73;;;125.63;;
35376;SDS011;21480;51.642;4.834;2022-12-18T01:20:08;179.93;;;127.13;;
35376;SDS011;21480;51.642;4.834;2022-12-18T01:22:35;180.50;;;127.47;;
35376;SDS011;21480;51.642;4.834;2022-12-18T01:25:05;170.90;;;126.77;;
35376;SDS011;21480;51.642;4.834;2022-12-18T01:27:32;164.03;;;124.07;;
35376;SDS011;21480;51.642;4.834;2022-12-18T01:29:58;167.03;;;124.10;;
35376;SDS011;21480;51.642;4.834;2022-12-18T01:32:24;175.17;;;122.87;;
35376;SDS011;21480;51.642;4.834;2022-12-18T01:34:49;165.67;;;125.17;;
35376;SDS011;21480;51.642;4.834;2022-12-18T01:37:15;168.13;;;125.40;;
35376;SDS011;21480;51.642;4.834;2022-12-18T01:39:41;162.17;;;124.47;;
35376;SDS011;21480;51.642;4.834;2022-12-18T01:42:11;154.00;;;122.13;;
35376;SDS011;21480;51.642;4.834;2022-12-18T01:50:47;157.63;;;123.83;;
35376;SDS011;21480;51.642;4.834;2022-12-18T01:53:00;154.53;;;121.13;;
35376;SDS011;21480;51.642;4.834;2022-12-18T01:55:59;161.70;;;122.27;;
35376;SDS011;21480;51.642;4.834;2022-12-18T01:58:27;148.00;;;121.43;;
35376;SDS011;21480;51.642;4.834;2022-12-18T02:01:06;152.73;;;121.53;;
35376;SDS011;21480;51.642;4.834;2022-12-18T02:03:32;152.40;;;122.53;;
35376;SDS011;21480;51.642;4.834;2022-12-18T02:06:09;150.23;;;122.27;;
35376;SDS011;21480;51.642;4.834;2022-12-18T02:19:46;143.60;;;122.93;;
35376;SDS011;21480;51.642;4.834;2022-12-18T02:28:23;148.67;;;121.23;;
35376;SDS011;21480;51.642;4.834;2022-12-18T02:30:54;152.43;;;122.83;;
35376;SDS011;21480;51.642;4.834;2022-12-18T02:33:25;145.80;;;119.97;;
35376;SDS011;21480;51.642;4.834;2022-12-18T02:35:52;135.63;;;119.93;;
35376;SDS011;21480;51.642;4.834;2022-12-18T02:38:20;136.23;;;119.67;;
35376;SDS011;21480;51.642;4.834;2022-12-18T02:40:46;147.70;;;121.60;;
35376;SDS011;21480;51.642;4.834;2022-12-18T02:43:15;156.50;;;121.77;;
35376;SDS011;21480;51.642;4.834;2022-12-18T02:45:50;148.47;;;119.47;;
35376;SDS011;21480;51.642;4.834;2022-12-18T02:48:25;137.73;;;118.33;;
35376;SDS011;21480;51.642;4.834;2022-12-18T02:53:41;146.63;;;116.33;;
35376;SDS011;21480;51.642;4.834;2022-12-18T02:59:15;134.20;;;119.40;;
35376;SDS011;21480;51.642;4.834;2022-12-18T03:02:07;141.73;;;119.63;;
35376;SDS011;21480;51.642;4.834;2022-12-18T03:07:39;138.40;;;120.17;;
35376;SDS011;21480;51.642;4.834;2022-12-18T03:10:27;140.67;;;119.13;;
35376;SDS011;21480;51.642;4.834;2022-12-18T03:13:04;141.57;;;118.37;;
35376;SDS011;21480;51.642;4.834;2022-12-18T03:15:37;132.13;;;117.70;;
35376;SDS011;21480;51.642;4.834;2022-12-18T03:18:15;143.57;;;120.27;;
35376;SDS011;21480;51.642;4.834;2022-12-18T03:20:44;134.70;;;119.67;;
35376;SDS011;21480;51.642;4.834;2022-12-18T03:23:14;146.17;;;118.23;;
35376;SDS011;21480;51.642;4.834;2022-12-18T03:25:45;130.23;;;115.97;;
35376;SDS011;21480;51.642;4.834;2022-12-18T03:28:17;138.83;;;118.60;;
35376;SDS011;21480;51.642;4.834;2022-12-18T03:30:45;144.63;;;118.83;;
35376;SDS011;21480;51.642;4.834;2022-12-18T03:33:19;132.67;;;117.90;;
35376;SDS011;21480;51.642;4.834;2022-12-18T03:35:52;130.33;;;117.00;;
35376;SDS011;21480;51.642;4.834;2022-12-18T03:38:18;131.47;;;117.77;;
35376;SDS011;21480;51.642;4.834;2022-12-18T03:46:08;131.73;;;117.63;;
35376;SDS011;21480;51.642;4.834;2022-12-18T03:48:48;131.20;;;117.67;;
35376;SDS011;21480;51.642;4.834;2022-12-18T03:51:40;133.83;;;119.47;;
35376;SDS011;21480;51.642;4.834;2022-12-18T03:54:11;130.00;;;115.77;;
35376;SDS011;21480;51.642;4.834;2022-12-18T03:56:40;132.37;;;118.23;;
35376;SDS011;21480;51.642;4.834;2022-12-18T03:59:11;130.53;;;116.70;;
35376;SDS011;21480;51.642;4.834;2022-12-18T04:01:41;135.60;;;117.83;;
35376;SDS011;21480;51.642;4.834;2022-12-18T04:04:11;131.40;;;117.47;;
35376;SDS011;21480;51.642;4.834;2022-12-18T04:06:39;136.77;;;116.03;;
35376;SDS011;21480;51.642;4.834;2022-12-18T04:09:07;130.83;;;117.17;;
35376;SDS011;21480;51.642;4.834;2022-12-18T04:11:33;130.80;;;116.83;;
35376;SDS011;21480;51.642;4.834;2022-12-18T04:13:59;134.03;;;114.93;;
35376;SDS011;21480;51.642;4.834;2022-12-18T04:16:25;131.77;;;117.57;;
35376;SDS011;21480;51.642;4.834;2022-12-18T04:18:51;131.37;;;116.80;;
35376;SDS011;21480;51.642;4.834;2022-12-18T04:21:17;130.43;;;115.87;;
35376;SDS011;21480;51.642;4.834;2022-12-18T04:23:46;128.97;;;115.67;;
35376;SDS011;21480;51.642;4.834;2022-12-18T04:26:11;128.60;;;115.33;;
35376;SDS011;21480;51.642;4.834;2022-12-18T04:28:37;128.43;;;115.53;;
35376;SDS011;21480;51.642;4.834;2022-12-18T04:31:03;126.60;;;113.50;;
35376;SDS011;21480;51.642;4.834;2022-12-18T04:33:29;127.37;;;114.40;;
35376;SDS011;21480;51.642;4.834;2022-12-18T04:35:54;127.33;;;114.80;;
35376;SDS011;21480;51.642;4.834;2022-12-18T04:38:20;126.30;;;113.47;;
35376;SDS011;21480;51.642;4.834;2022-12-18T04:40:46;125.27;;;112.77;;
35376;SDS011;21480;51.642;4.834;2022-12-18T04:43:11;125.50;;;112.83;;
35376;SDS011;21480;51.642;4.834;2022-12-18T04:45:37;126.50;;;114.13;;
35376;SDS011;21480;51.642;4.834;2022-12-18T04:48:03;123.73;;;111.17;;
35376;SDS011;21480;51.642;4.834;2022-12-18T04:50:29;125.80;;;112.63;;
35376;SDS011;21480;51.642;4.834;2022-12-18T04:52:56;124.17;;;112.03;;
35376;SDS011;21480;51.642;4.834;2022-12-18T04:55:21;124.97;;;112.60;;
35376;SDS011;21480;51.642;4.834;2022-12-18T04:57:47;123.27;;;111.13;;
35376;SDS011;21480;51.642;4.834;2022-12-18T05:00:13;124.83;;;112.77;;
35376;SDS011;21480;51.642;4.834;2022-12-18T05:02:39;127.90;;;114.70;;
35376;SDS011;21480;51.642;4.834;2022-12-18T05:05:05;127.50;;;114.47;;
35376;SDS011;21480;51.642;4.834;2022-12-18T05:07:31;124.97;;;112.60;;
35376;SDS011;21480;51.642;4.834;2022-12-18T05:09:57;125.73;;;113.00;;
35376;SDS011;21480;51.642;4.834;2022-12-18T05:12:25;127.80;;;114.70;;
35376;SDS011;21480;51.642;4.834;2022-12-18T05:14:51;130.13;;;116.57;;
35376;SDS011;21480;51.642;4.834;2022-12-18T05:17:17;127.13;;;114.00;;
35376;SDS011;21480;51.642;4.834;2022-12-18T05:19:42;126.40;;;113.97;;
35376;SDS011;21480;51.642;4.834;2022-12-18T05:22:08;125.87;;;113.23;;
35376;SDS011;21480;51.642;4.834;2022-12-18T05:24:35;129.23;;;115.47;;
35376;SDS011;21480;51.642;4.834;2022-12-18T05:27:00;127.77;;;113.47;;
35376;SDS011;21480;51.642;4.834;2022-12-18T05:29:26;126.43;;;113.07;;
35376;SDS011;21480;51.642;4.834;2022-12-18T05:31:52;128.70;;;115.20;;
35376;SDS011;21480;51.642;4.834;2022-12-18T05:34:18;128.43;;;114.73;;
35376;SDS011;21480;51.642;4.834;2022-12-18T05:36:43;125.00;;;112.83;;
35376;SDS011;21480;51.642;4.834;2022-12-18T05:39:09;128.23;;;114.60;;
35376;SDS011;21480;51.642;4.834;2022-12-18T05:41:35;126.77;;;114.27;;
35376;SDS011;21480;51.642;4.834;2022-12-18T05:44:01;127.67;;;114.30;;
35376;SDS011;21480;51.642;4.834;2022-12-18T05:46:26;126.47;;;113.10;;
35376;SDS011;21480;51.642;4.834;2022-12-18T05:48:52;126.50;;;113.40;;
35376;SDS011;21480;51.642;4.834;2022-12-18T05:51:19;127.37;;;113.93;;
35376;SDS011;21480;51.642;4.834;2022-12-18T05:53:46;125.33;;;112.60;;
35376;SDS011;21480;51.642;4.834;2022-12-18T05:56:13;126.93;;;114.40;;
35376;SDS011;21480;51.642;4.834;2022-12-18T05:58:41;129.63;;;116.00;;
35376;SDS011;21480;51.642;4.834;2022-12-18T06:01:11;124.90;;;112.60;;
35376;SDS011;21480;51.642;4.834;2022-12-18T06:03:40;127.30;;;114.57;;
35376;SDS011;21480;51.642;4.834;2022-12-18T06:06:12;125.17;;;112.60;;
35376;SDS011;21480;51.642;4.834;2022-12-18T06:08:46;124.37;;;112.77;;
35376;SDS011;21480;51.642;4.834;2022-12-18T06:11:12;121.87;;;109.87;;
35376;SDS011;21480;51.642;4.834;2022-12-18T06:13:38;124.90;;;112.33;;
35376;SDS011;21480;51.642;4.834;2022-12-18T06:16:04;123.40;;;111.80;;
35376;SDS011;21480;51.642;4.834;2022-12-18T06:18:31;123.97;;;112.10;;
35376;SDS011;21480;51.642;4.834;2022-12-18T06:20:58;124.60;;;112.20;;
35376;SDS011;21480;51.642;4.834;2022-12-18T06:23:24;123.47;;;111.13;;
35376;SDS011;21480;51.642;4.834;2022-12-18T06:25:50;121.97;;;110.43;;
35376;SDS011;21480;51.642;4.834;2022-12-18T06:28:16;124.27;;;112.03;;
35376;SDS011;21480;51.642;4.834;2022-12-18T06:30:45;123.50;;;111.27;;
35376;SDS011;21480;51.642;4.834;2022-12-18T06:33:13;126.03;;;113.33;;
35376;SDS011;21480;51.642;4.834;2022-12-18T06:35:39;125.37;;;112.43;;
35376;SDS011;21480;51.642;4.834;2022-12-18T06:38:05;123.93;;;111.70;;
35376;SDS011;21480;51.642;4.834;2022-12-18T06:40:31;124.37;;;112.20;;
35376;SDS011;21480;51.642;4.834;2022-12-18T06:42:57;124.60;;;112.57;;
35376;SDS011;21480;51.642;4.834;2022-12-18T06:45:23;122.10;;;109.83;;
35376;SDS011;21480;51.642;4.834;2022-12-18T06:47:49;121.50;;;109.93;;
35376;SDS011;21480;51.642;4.834;2022-12-18T06:50:15;121.63;;;110.57;;
35376;SDS011;21480;51.642;4.834;2022-12-18T06:52:41;121.03;;;109.90;;
35376;SDS011;21480;51.642;4.834;2022-12-18T06:55:09;121.80;;;109.87;;
35376;SDS011;21480;51.642;4.834;2022-12-18T06:57:36;121.60;;;110.70;;
35376;SDS011;21480;51.642;4.834;2022-12-18T07:00:02;121.13;;;109.73;;
35376;SDS011;21480;51.642;4.834;2022-12-18T07:02:30;122.53;;;111.27;;
35376;SDS011;21480;51.642;4.834;2022-12-18T07:04:55;121.53;;;109.00;;
35376;SDS011;21480;51.642;4.834;2022-12-18T07:07:21;120.27;;;109.17;;
35376;SDS011;21480;51.642;4.834;2022-12-18T07:09:47;122.97;;;111.17;;
35376;SDS011;21480;51.642;4.834;2022-12-18T07:12:14;120.27;;;109.20;;
35376;SDS011;21480;51.642;4.834;2022-12-18T07:14:40;121.00;;;109.80;;
35376;SDS011;21480;51.642;4.834;2022-12-18T07:17:06;122.93;;;111.43;;
35376;SDS011;21480;51.642;4.834;2022-12-18T07:19:32;121.50;;;110.20;;
35376;SDS011;21480;51.642;4.834;2022-12-18T07:21:58;122.57;;;110.87;;
35376;SDS011;21480;51.642;4.834;2022-12-18T07:24:23;122.63;;;111.00;;
35376;SDS011;21480;51.642;4.834;2022-12-18T07:26:49;123.53;;;111.63;;
35376;SDS011;21480;51.642;4.834;2022-12-18T07:29:15;122.87;;;110.47;;
35376;SDS011;21480;51.642;4.834;2022-12-18T07:31:40;123.63;;;112.17;;
35376;SDS011;21480;51.642;4.834;2022-12-18T07:34:10;121.40;;;109.47;;
35376;SDS011;21480;51.642;4.834;2022-12-18T07:36:37;124.13;;;111.83;;
35376;SDS011;21480;51.642;4.834;2022-12-18T07:39:03;121.60;;;110.80;;
35376;SDS011;21480;51.642;4.834;2022-12-18T07:41:29;121.93;;;111.00;;
35376;SDS011;21480;51.642;4.834;2022-12-18T07:43:54;122.27;;;111.10;;
35376;SDS011;21480;51.642;4.834;2022-12-18T07:46:20;125.63;;;113.53;;
35376;SDS011;21480;51.642;4.834;2022-12-18T07:48:46;122.43;;;110.87;;
35376;SDS011;21480;51.642;4.834;2022-12-18T07:51:12;123.37;;;112.00;;
35376;SDS011;21480;51.642;4.834;2022-12-18T07:53:38;123.80;;;112.73;;
35376;SDS011;21480;51.642;4.834;2022-12-18T07:56:06;125.57;;;113.83;;
35376;SDS011;21480;51.642;4.834;2022-12-18T07:58:34;122.63;;;111.30;;
35376;SDS011;21480;51.642;4.834;2022-12-18T08:01:07;124.17;;;112.60;;
35376;SDS011;21480;51.642;4.834;2022-12-18T08:03:35;122.90;;;111.80;;
35376;SDS011;21480;51.642;4.834;2022-12-18T08:06:02;123.20;;;111.30;;
35376;SDS011;21480;51.642;4.834;2022-12-18T08:08:29;123.23;;;111.97;;
35376;SDS011;21480;51.642;4.834;2022-12-18T08:10:56;125.60;;;113.93;;
35376;SDS011;21480;51.642;4.834;2022-12-18T08:13:23;124.33;;;113.07;;
35376;SDS011;21480;51.642;4.834;2022-12-18T08:15:56;123.97;;;112.70;;
35376;SDS011;21480;51.642;4.834;2022-12-18T08:18:23;122.60;;;110.70;;
35376;SDS011;21480;51.642;4.834;2022-12-18T08:20:49;124.57;;;113.13;;
35376;SDS011;21480;51.642;4.834;2022-12-18T08:23:15;123.33;;;111.87;;
35376;SDS011;21480;51.642;4.834;2022-12-18T08:25:41;122.37;;;110.80;;
35376;SDS011;21480;51.642;4.834;2022-12-18T08:28:07;121.83;;;110.47;;
35376;SDS011;21480;51.642;4.834;2022-12-18T08:30:32;123.90;;;112.03;;
35376;SDS011;21480;51.642;4.834;2022-12-18T08:32:58;122.20;;;111.07;;
35376;SDS011;21480;51.642;4.834;2022-12-18T08:35:24;124.67;;;113.10;;
35376;SDS011;21480;51.642;4.834;2022-12-18T08:37:49;123.97;;;112.63;;
35376;SDS011;21480;51.642;4.834;2022-12-18T08:40:15;124.77;;;112.97;;
35376;SDS011;21480;51.642;4.834;2022-12-18T08:42:41;122.73;;;111.10;;
35376;SDS011;21480;51.642;4.834;2022-12-18T08:45:25;122.60;;;111.13;;
35376;SDS011;21480;51.642;4.834;2022-12-18T08:47:51;121.63;;;111.00;;
35376;SDS011;21480;51.642;4.834;2022-12-18T08:50:17;122.93;;;112.00;;
35376;SDS011;21480;51.642;4.834;2022-12-18T08:52:42;122.10;;;110.97;;
35376;SDS011;21480;51.642;4.834;2022-12-18T08:55:11;121.33;;;110.03;;
35376;SDS011;21480;51.642;4.834;2022-12-18T08:57:36;123.60;;;112.20;;
35376;SDS011;21480;51.642;4.834;2022-12-18T09:00:03;122.27;;;110.67;;
35376;SDS011;21480;51.642;4.834;2022-12-18T09:02:29;122.83;;;111.37;;
35376;SDS011;21480;51.642;4.834;2022-12-18T09:04:55;122.77;;;111.73;;
35376;SDS011;21480;51.642;4.834;2022-12-18T09:07:20;124.27;;;112.87;;
35376;SDS011;21480;51.642;4.834;2022-12-18T09:09:46;121.03;;;110.33;;
35376;SDS011;21480;51.642;4.834;2022-12-18T09:12:12;123.80;;;112.30;;
35376;SDS011;21480;51.642;4.834;2022-12-18T09:14:37;122.07;;;111.07;;
35376;SDS011;21480;51.642;4.834;2022-12-18T09:17:03;123.97;;;112.67;;
35376;SDS011;21480;51.642;4.834;2022-12-18T09:19:29;122.70;;;111.63;;
35376;SDS011;21480;51.642;4.834;2022-12-18T09:21:55;123.80;;;112.90;;
35376;SDS011;21480;51.642;4.834;2022-12-18T09:24:20;123.57;;;112.30;;
35376;SDS011;21480;51.642;4.834;2022-12-18T09:26:46;123.50;;;112.30;;
35376;SDS011;21480;51.642;4.834;2022-12-18T09:29:12;123.67;;;112.07;;
35376;SDS011;21480;51.642;4.834;2022-12-18T09:31:39;125.77;;;114.00;;
35376;SDS011;21480;51.642;4.834;2022-12-18T09:34:05;125.03;;;113.77;;
35376;SDS011;21480;51.642;4.834;2022-12-18T09:36:31;124.30;;;113.00;;
35376;SDS011;21480;51.642;4.834;2022-12-18T09:38:56;125.13;;;113.67;;
35376;SDS011;21480;51.642;4.834;2022-12-18T09:44:25;125.90;;;113.83;;
35376;SDS011;21480;51.642;4.834;2022-12-18T09:49:30;124.90;;;113.40;;
35376;SDS011;21480;51.642;4.834;2022-12-18T09:52:00;122.47;;;111.43;;
35376;SDS011;21480;51.642;4.834;2022-12-18T09:54:35;123.70;;;112.63;;
35376;SDS011;21480;51.642;4.834;2022-12-18T09:57:04;124.93;;;113.60;;
35376;SDS011;21480;51.642;4.834;2022-12-18T09:59:32;126.37;;;114.17;;
35376;SDS011;21480;51.642;4.834;2022-12-18T10:02:18;124.07;;;113.07;;
35376;SDS011;21480;51.642;4.834;2022-12-18T10:04:50;122.63;;;111.67;;
35376;SDS011;21480;51.642;4.834;2022-12-18T10:07:43;123.53;;;112.60;;
35376;SDS011;21480;51.642;4.834;2022-12-18T10:10:14;124.70;;;113.20;;
35376;SDS011;21480;51.642;4.834;2022-12-18T10:13:00;123.13;;;112.27;;
35376;SDS011;21480;51.642;4.834;2022-12-18T10:15:30;122.87;;;111.93;;
35376;SDS011;21480;51.642;4.834;2022-12-18T10:21:12;126.20;;;114.47;;
35376;SDS011;21480;51.642;4.834;2022-12-18T10:26:18;123.73;;;112.93;;
35376;SDS011;21480;51.642;4.834;2022-12-18T10:28:45;122.07;;;111.70;;
35376;SDS011;21480;51.642;4.834;2022-12-18T10:31:15;125.57;;;114.40;;
35376;SDS011;21480;51.642;4.834;2022-12-18T10:33:42;125.37;;;113.43;;
35376;SDS011;21480;51.642;4.834;2022-12-18T10:36:08;125.17;;;114.20;;
35376;SDS011;21480;51.642;4.834;2022-12-18T10:38:34;123.37;;;112.63;;
35376;SDS011;21480;51.642;4.834;2022-12-18T10:43:47;125.40;;;114.37;;
35376;SDS011;21480;51.642;4.834;2022-12-18T10:46:19;124.83;;;113.93;;
35376;SDS011;21480;51.642;4.834;2022-12-18T10:51:16;125.83;;;114.30;;
35376;SDS011;21480;51.642;4.834;2022-12-18T10:54:31;128.03;;;116.33;;
35376;SDS011;21480;51.642;4.834;2022-12-18T10:56:40;124.33;;;113.63;;
35376;SDS011;21480;51.642;4.834;2022-12-18T10:59:08;126.53;;;114.70;;
35376;SDS011;21480;51.642;4.834;2022-12-18T11:04:19;126.00;;;114.67;;
35376;SDS011;21480;51.642;4.834;2022-12-18T11:09:25;124.07;;;113.07;;
35376;SDS011;21480;51.642;4.834;2022-12-18T11:11:57;124.83;;;113.67;;
35376;SDS011;21480;51.642;4.834;2022-12-18T11:14:31;125.73;;;114.73;;
35376;SDS011;21480;51.642;4.834;2022-12-18T11:16:59;126.43;;;115.03;;
35376;SDS011;21480;51.642;4.834;2022-12-18T11:19:39;124.60;;;113.40;;
35376;SDS011;21480;51.642;4.834;2022-12-18T11:24:59;125.73;;;114.43;;
35376;SDS011;21480;51.642;4.834;2022-12-18T11:27:41;126.17;;;114.77;;
35376;SDS011;21480;51.642;4.834;2022-12-18T11:30:36;126.53;;;114.60;;
35376;SDS011;21480;51.642;4.834;2022-12-18T11:35:34;126.63;;;115.33;;
35376;SDS011;21480;51.642;4.834;2022-12-18T11:40:47;127.17;;;115.87;;
35376;SDS011;21480;51.642;4.834;2022-12-18T11:43:28;126.13;;;115.23;;
35376;SDS011;21480;51.642;4.834;2022-12-18T11:46:16;125.43;;;114.20;;
35376;SDS011;21480;51.642;4.834;2022-12-18T11:49:07;126.97;;;115.50;;
35376;SDS011;21480;51.642;4.834;2022-12-18T11:51:53;126.97;;;115.47;;
35376;SDS011;21480;51.642;4.834;2022-12-18T11:54:26;125.13;;;113.60;;
35376;SDS011;21480;51.642;4.834;2022-12-18T11:56:56;126.87;;;115.27;;
35376;SDS011;21480;51.642;4.834;2022-12-18T12:02:29;129.70;;;117.90;;
35376;SDS011;21480;51.642;4.834;2022-12-18T12:05:10;125.50;;;113.93;;
35376;SDS011;21480;51.642;4.834;2022-12-18T12:18:52;126.77;;;114.97;;
35376;SDS011;21480;51.642;4.834;2022-12-18T12:21:41;127.83;;;116.03;;
35376;SDS011;21480;51.642;4.834;2022-12-18T12:35:09;126.77;;;115.37;;
35376;SDS011;21480;51.642;4.834;2022-12-18T12:37:49;126.57;;;114.80;;
35376;SDS011;21480;51.642;4.834;2022-12-18T12:40:29;134.33;;;121.30;;
35376;SDS011;21480;51.642;4.834;2022-12-18T12:46:11;127.10;;;115.43;;
35376;SDS011;21480;51.642;4.834;2022-12-18T12:48:49;128.60;;;116.67;;
35376;SDS011;21480;51.642;4.834;2022-12-18T12:53:59;131.43;;;118.87;;
35376;SDS011;21480;51.642;4.834;2022-12-18T12:56:31;129.13;;;117.43;;
35376;SDS011;21480;51.642;4.834;2022-12-18T13:02:18;126.63;;;115.33;;
35376;SDS011;21480;51.642;4.834;2022-12-18T13:08:07;127.97;;;116.23;;
35376;SDS011;21480;51.642;4.834;2022-12-18T13:10:43;128.60;;;116.77;;
35376;SDS011;21480;51.642;4.834;2022-12-18T13:13:10;127.67;;;116.10;;
35376;SDS011;21480;51.642;4.834;2022-12-18T13:20:35;129.17;;;117.47;;
35376;SDS011;21480;51.642;4.834;2022-12-18T13:25:55;127.30;;;116.00;;
35376;SDS011;21480;51.642;4.834;2022-12-18T13:31:12;127.17;;;115.83;;
35376;SDS011;21480;51.642;4.834;2022-12-18T13:34:39;127.63;;;116.20;;
35376;SDS011;21480;51.642;4.834;2022-12-18T13:36:47;128.10;;;116.60;;
35376;SDS011;21480;51.642;4.834;2022-12-18T13:41:39;127.60;;;116.27;;
35376;SDS011;21480;51.642;4.834;2022-12-18T13:44:17;131.33;;;119.43;;
35376;SDS011;21480;51.642;4.834;2022-12-18T13:46:50;126.67;;;115.17;;
35376;SDS011;21480;51.642;4.834;2022-12-18T13:49:36;130.20;;;118.13;;
35376;SDS011;21480;51.642;4.834;2022-12-18T13:55:18;129.67;;;117.63;;
35376;SDS011;21480;51.642;4.834;2022-12-18T13:57:46;127.83;;;116.43;;
35376;SDS011;21480;51.642;4.834;2022-12-18T14:00:33;129.60;;;117.40;;
35376;SDS011;21480;51.642;4.834;2022-12-18T14:02:58;128.73;;;117.13;;
35376;SDS011;21480;51.642;4.834;2022-12-18T14:05:43;130.87;;;118.43;;
35376;SDS011;21480;51.642;4.834;2022-12-18T14:08:12;127.60;;;116.07;;
35376;SDS011;21480;51.642;4.834;2022-12-18T14:10:44;131.13;;;118.90;;
35376;SDS011;21480;51.642;4.834;2022-12-18T14:13:15;128.37;;;116.67;;
35376;SDS011;21480;51.642;4.834;2022-12-18T14:15:54;128.67;;;116.97;;
35376;SDS011;21480;51.642;4.834;2022-12-18T14:18:25;129.90;;;118.33;;
35376;SDS011;21480;51.642;4.834;2022-12-18T14:20:57;127.83;;;116.37;;
35376;SDS011;21480;51.642;4.834;2022-12-18T14:23:34;128.40;;;116.87;;
35376;SDS011;21480;51.642;4.834;2022-12-18T14:26:03;129.87;;;118.17;;
35376;SDS011;21480;51.642;4.834;2022-12-18T14:28:45;130.70;;;118.40;;
35376;SDS011;21480;51.642;4.834;2022-12-18T14:31:18;129.30;;;117.67;;
35376;SDS011;21480;51.642;4.834;2022-12-18T14:33:44;131.33;;;119.27;;
35376;SDS011;21480;51.642;4.834;2022-12-18T14:36:17;129.17;;;117.17;;
35376;SDS011;21480;51.642;4.834;2022-12-18T14:38:48;128.50;;;116.80;;
35376;SDS011;21480;51.642;4.834;2022-12-18T14:41:24;128.07;;;116.70;;
35376;SDS011;21480;51.642;4.834;2022-12-18T14:43:52;128.47;;;116.87;;
35376;SDS011;21480;51.642;4.834;2022-12-18T14:46:41;127.83;;;116.30;;
35376;SDS011;21480;51.642;4.834;2022-12-18T14:51:55;127.10;;;115.60;;
35376;SDS011;21480;51.642;4.834;2022-12-18T14:54:22;128.87;;;117.33;;
35376;SDS011;21480;51.642;4.834;2022-12-18T14:59:48;130.57;;;118.17;;
35376;SDS011;21480;51.642;4.834;2022-12-18T15:02:22;129.70;;;117.97;;
35376;SDS011;21480;51.642;4.834;2022-12-18T15:05:16;128.27;;;117.03;;
35376;SDS011;21480;51.642;4.834;2022-12-18T15:07:56;128.70;;;116.90;;
35376;SDS011;21480;51.642;4.834;2022-12-18T15:10:31;129.90;;;118.00;;
35376;SDS011;21480;51.642;4.834;2022-12-18T15:21:36;132.03;;;119.80;;
35376;SDS011;21480;51.642;4.834;2022-12-18T15:26:09;128.97;;;117.17;;
35376;SDS011;21480;51.642;4.834;2022-12-18T15:33:39;129.80;;;117.23;;
35376;SDS011;21480;51.642;4.834;2022-12-18T15:36:15;129.23;;;117.17;;
35376;SDS011;21480;51.642;4.834;2022-12-18T15:38:43;128.33;;;116.77;;
35376;SDS011;21480;51.642;4.834;2022-12-18T15:41:15;129.70;;;117.50;;
35376;SDS011;21480;51.642;4.834;2022-12-18T15:43:43;128.40;;;116.37;;
35376;SDS011;21480;51.642;4.834;2022-12-18T15:46:11;130.03;;;117.73;;
35376;SDS011;21480;51.642;4.834;2022-12-18T15:48:42;129.43;;;117.50;;
35376;SDS011;21480;51.642;4.834;2022-12-18T15:51:19;129.53;;;117.90;;
35376;SDS011;21480;51.642;4.834;2022-12-18T15:53:46;129.23;;;117.83;;
35376;SDS011;21480;51.642;4.834;2022-12-18T15:56:15;128.43;;;116.63;;
35376;SDS011;21480;51.642;4.834;2022-12-18T15:59:00;127.90;;;116.30;;
35376;SDS011;21480;51.642;4.834;2022-12-18T16:01:27;130.70;;;118.80;;
35376;SDS011;21480;51.642;4.834;2022-12-18T16:03:55;129.77;;;117.97;;
35376;SDS011;21480;51.642;4.834;2022-12-18T16:06:21;129.43;;;117.63;;
35376;SDS011;21480;51.642;4.834;2022-12-18T16:08:47;128.43;;;116.40;;
35376;SDS011;21480;51.642;4.834;2022-12-18T16:11:23;132.17;;;119.20;;
35376;SDS011;21480;51.642;4.834;2022-12-18T16:14:12;129.87;;;118.03;;
35376;SDS011;21480;51.642;4.834;2022-12-18T16:16:49;128.43;;;116.67;;
35376;SDS011;21480;51.642;4.834;2022-12-18T16:19:17;128.10;;;116.23;;
35376;SDS011;21480;51.642;4.834;2022-12-18T16:21:43;129.37;;;117.73;;
35376;SDS011;21480;51.642;4.834;2022-12-18T16:24:17;129.73;;;117.73;;
35376;SDS011;21480;51.642;4.834;2022-12-18T16:26:51;129.77;;;117.77;;
35376;SDS011;21480;51.642;4.834;2022-12-18T16:29:18;129.27;;;117.27;;
35376;SDS011;21480;51.642;4.834;2022-12-18T16:31:49;129.60;;;117.90;;
35376;SDS011;21480;51.642;4.834;2022-12-18T16:34:19;131.00;;;119.03;;